sensor_id;sensor_type;location;lat;lon;timestamp;P1;durP1;ratioP1;P2;durP2;ratioP2
7817;SDS011;3954;52.624;9.212;2022-07-24T00:01:07;2.43;;;2.23;;
7817;SDS011;3954;52.624;9.212;2022-07-24T00:03:33;3.77;;;2.63;;
7817;SDS011;3954;52.624;9.212;2022-07-24T00:05:59;2.70;;;2.50;;
7817;SDS011;3954;52.624;9.212;2022-07-24T00:08:26;3.43;;;2.90;;
7817;SDS011;3954;52.624;9.212;2022-07-24T00:10:52;3.63;;;3.20;;
7817;SDS011;3954;52.624;9.212;2022-07-24T00:13:18;4.00;;;2.93;;
7817;SDS011;3954;52.624;9.212;2022-07-24T00:15:44;3.13;;;2.60;;
7817;SDS011;3954;52.624;9.212;2022-07-24T00:18:11;3.03;;;2.63;;
7817;SDS011;3954;52.624;9.212;2022-07-24T00:20:37;2.70;;;2.50;;
7817;SDS011;3954;52.624;9.212;2022-07-24T00:23:03;6.77;;;2.80;;
7817;SDS011;3954;52.624;9.212;2022-07-24T00:25:30;2.90;;;2.60;;
7817;SDS011;3954;52.624;9.212;2022-07-24T00:27:57;2.93;;;2.63;;
7817;SDS011;3954;52.624;9.212;2022-07-24T00:30:23;4.40;;;2.50;;
7817;SDS011;3954;52.624;9.212;2022-07-24T00:32:49;3.23;;;2.30;;
7817;SDS011;3954;52.624;9.212;2022-07-24T00:35:15;2.80;;;2.33;;
7817;SDS011;3954;52.624;9.212;2022-07-24T00:37:42;3.50;;;2.13;;
7817;SDS011;3954;52.624;9.212;2022-07-24T00:40:11;2.37;;;2.17;;
7817;SDS011;3954;52.624;9.212;2022-07-24T00:42:39;4.50;;;2.53;;
7817;SDS011;3954;52.624;9.212;2022-07-24T00:45:05;2.57;;;2.30;;
7817;SDS011;3954;52.624;9.212;2022-07-24T00:47:31;3.10;;;2.30;;
7817;SDS011;3954;52.624;9.212;2022-07-24T00:49:57;2.70;;;2.20;;
7817;SDS011;3954;52.624;9.212;2022-07-24T00:52:24;2.77;;;2.23;;
7817;SDS011;3954;52.624;9.212;2022-07-24T00:54:50;2.60;;;2.40;;
7817;SDS011;3954;52.624;9.212;2022-07-24T00:57:16;2.83;;;2.30;;
7817;SDS011;3954;52.624;9.212;2022-07-24T00:59:44;2.50;;;2.20;;
7817;SDS011;3954;52.624;9.212;2022-07-24T01:02:10;2.30;;;1.90;;
7817;SDS011;3954;52.624;9.212;2022-07-24T01:04:37;3.47;;;2.77;;
7817;SDS011;3954;52.624;9.212;2022-07-24T01:07:03;2.70;;;2.50;;
7817;SDS011;3954;52.624;9.212;2022-07-24T01:09:29;3.07;;;2.60;;
7817;SDS011;3954;52.624;9.212;2022-07-24T01:11:55;3.10;;;2.67;;
7817;SDS011;3954;52.624;9.212;2022-07-24T01:14:22;4.20;;;2.50;;
7817;SDS011;3954;52.624;9.212;2022-07-24T01:16:50;3.80;;;2.30;;
7817;SDS011;3954;52.624;9.212;2022-07-24T01:19:16;4.33;;;2.70;;
7817;SDS011;3954;52.624;9.212;2022-07-24T01:21:46;3.13;;;2.60;;
7817;SDS011;3954;52.624;9.212;2022-07-24T01:24:12;2.83;;;2.53;;
7817;SDS011;3954;52.624;9.212;2022-07-24T01:26:38;3.03;;;2.70;;
7817;SDS011;3954;52.624;9.212;2022-07-24T01:29:04;2.63;;;2.30;;
7817;SDS011;3954;52.624;9.212;2022-07-24T01:31:30;2.70;;;2.30;;
7817;SDS011;3954;52.624;9.212;2022-07-24T01:33:56;2.97;;;2.77;;
7817;SDS011;3954;52.624;9.212;2022-07-24T01:36:22;3.17;;;2.83;;
7817;SDS011;3954;52.624;9.212;2022-07-24T01:38:50;2.63;;;2.43;;
7817;SDS011;3954;52.624;9.212;2022-07-24T01:41:16;4.77;;;2.80;;
7817;SDS011;3954;52.624;9.212;2022-07-24T01:43:42;3.37;;;2.20;;
7817;SDS011;3954;52.624;9.212;2022-07-24T01:46:08;2.90;;;2.60;;
7817;SDS011;3954;52.624;9.212;2022-07-24T01:48:34;3.53;;;2.40;;
7817;SDS011;3954;52.624;9.212;2022-07-24T01:51:00;3.80;;;2.97;;
7817;SDS011;3954;52.624;9.212;2022-07-24T01:53:27;3.33;;;2.50;;
7817;SDS011;3954;52.624;9.212;2022-07-24T01:55:54;3.33;;;2.60;;
7817;SDS011;3954;52.624;9.212;2022-07-24T01:58:20;3.40;;;2.77;;
7817;SDS011;3954;52.624;9.212;2022-07-24T02:00:46;4.17;;;3.10;;
7817;SDS011;3954;52.624;9.212;2022-07-24T02:03:12;3.43;;;2.83;;
7817;SDS011;3954;52.624;9.212;2022-07-24T02:05:38;3.27;;;3.03;;
7817;SDS011;3954;52.624;9.212;2022-07-24T02:08:04;4.60;;;3.00;;
7817;SDS011;3954;52.624;9.212;2022-07-24T02:10:30;4.63;;;3.00;;
7817;SDS011;3954;52.624;9.212;2022-07-24T02:12:57;3.07;;;2.80;;
7817;SDS011;3954;52.624;9.212;2022-07-24T02:15:24;3.30;;;3.00;;
7817;SDS011;3954;52.624;9.212;2022-07-24T02:17:50;4.40;;;2.90;;
7817;SDS011;3954;52.624;9.212;2022-07-24T02:20:16;3.23;;;2.80;;
7817;SDS011;3954;52.624;9.212;2022-07-24T02:22:43;3.17;;;2.87;;
7817;SDS011;3954;52.624;9.212;2022-07-24T02:25:09;3.40;;;3.07;;
7817;SDS011;3954;52.624;9.212;2022-07-24T02:27:35;3.77;;;2.90;;
7817;SDS011;3954;52.624;9.212;2022-07-24T02:30:03;3.10;;;2.80;;
7817;SDS011;3954;52.624;9.212;2022-07-24T02:32:30;5.30;;;3.30;;
7817;SDS011;3954;52.624;9.212;2022-07-24T02:34:55;3.23;;;2.93;;
7817;SDS011;3954;52.624;9.212;2022-07-24T02:37:21;3.23;;;2.93;;
7817;SDS011;3954;52.624;9.212;2022-07-24T02:39:47;3.13;;;2.70;;
7817;SDS011;3954;52.624;9.212;2022-07-24T02:42:14;3.60;;;2.93;;
7817;SDS011;3954;52.624;9.212;2022-07-24T02:44:40;3.50;;;2.83;;
7817;SDS011;3954;52.624;9.212;2022-07-24T02:47:07;3.50;;;2.70;;
7817;SDS011;3954;52.624;9.212;2022-07-24T02:49:33;4.83;;;2.87;;
7817;SDS011;3954;52.624;9.212;2022-07-24T02:52:00;3.07;;;2.50;;
7817;SDS011;3954;52.624;9.212;2022-07-24T02:54:26;3.03;;;2.80;;
7817;SDS011;3954;52.624;9.212;2022-07-24T02:56:52;2.57;;;2.37;;
7817;SDS011;3954;52.624;9.212;2022-07-24T02:59:18;2.70;;;2.50;;
7817;SDS011;3954;52.624;9.212;2022-07-24T03:01:44;5.60;;;2.87;;
7817;SDS011;3954;52.624;9.212;2022-07-24T03:04:12;2.93;;;2.63;;
7817;SDS011;3954;52.624;9.212;2022-07-24T03:06:38;3.97;;;3.03;;
7817;SDS011;3954;52.624;9.212;2022-07-24T03:09:04;3.00;;;2.70;;
7817;SDS011;3954;52.624;9.212;2022-07-24T03:11:30;3.67;;;2.67;;
7817;SDS011;3954;52.624;9.212;2022-07-24T03:13:56;3.73;;;2.70;;
7817;SDS011;3954;52.624;9.212;2022-07-24T03:16:22;3.43;;;3.10;;
7817;SDS011;3954;52.624;9.212;2022-07-24T03:18:48;2.70;;;2.50;;
7817;SDS011;3954;52.624;9.212;2022-07-24T03:21:15;3.43;;;2.90;;
7817;SDS011;3954;52.624;9.212;2022-07-24T03:23:42;3.07;;;2.73;;
7817;SDS011;3954;52.624;9.212;2022-07-24T03:26:08;3.47;;;2.93;;
7817;SDS011;3954;52.624;9.212;2022-07-24T03:28:34;3.40;;;3.10;;
7817;SDS011;3954;52.624;9.212;2022-07-24T03:31:01;3.80;;;2.87;;
7817;SDS011;3954;52.624;9.212;2022-07-24T03:33:28;3.30;;;3.00;;
7817;SDS011;3954;52.624;9.212;2022-07-24T03:35:54;3.37;;;2.80;;
7817;SDS011;3954;52.624;9.212;2022-07-24T03:38:21;3.13;;;2.83;;
7817;SDS011;3954;52.624;9.212;2022-07-24T03:40:47;3.57;;;3.27;;
7817;SDS011;3954;52.624;9.212;2022-07-24T03:43:13;3.50;;;3.17;;
7817;SDS011;3954;52.624;9.212;2022-07-24T03:45:39;3.47;;;2.73;;
7817;SDS011;3954;52.624;9.212;2022-07-24T03:48:05;3.27;;;3.07;;
7817;SDS011;3954;52.624;9.212;2022-07-24T03:50:31;3.30;;;3.00;;
7817;SDS011;3954;52.624;9.212;2022-07-24T03:52:57;5.03;;;3.00;;
7817;SDS011;3954;52.624;9.212;2022-07-24T03:55:25;5.80;;;3.33;;
7817;SDS011;3954;52.624;9.212;2022-07-24T03:57:50;5.30;;;2.83;;
7817;SDS011;3954;52.624;9.212;2022-07-24T04:00:16;3.50;;;2.97;;
7817;SDS011;3954;52.624;9.212;2022-07-24T04:02:42;3.70;;;3.10;;
7817;SDS011;3954;52.624;9.212;2022-07-24T04:05:08;4.47;;;3.20;;
7817;SDS011;3954;52.624;9.212;2022-07-24T04:07:35;3.43;;;3.13;;
7817;SDS011;3954;52.624;9.212;2022-07-24T04:10:01;3.30;;;3.00;;
7817;SDS011;3954;52.624;9.212;2022-07-24T04:12:28;4.00;;;2.97;;
7817;SDS011;3954;52.624;9.212;2022-07-24T04:14:54;3.83;;;3.30;;
7817;SDS011;3954;52.624;9.212;2022-07-24T04:17:20;3.20;;;2.93;;
7817;SDS011;3954;52.624;9.212;2022-07-24T04:19:46;4.03;;;3.03;;
7817;SDS011;3954;52.624;9.212;2022-07-24T04:22:12;4.27;;;3.50;;
7817;SDS011;3954;52.624;9.212;2022-07-24T04:24:38;3.80;;;3.47;;
7817;SDS011;3954;52.624;9.212;2022-07-24T04:27:04;4.40;;;3.90;;
7817;SDS011;3954;52.624;9.212;2022-07-24T04:29:31;3.80;;;3.40;;
7817;SDS011;3954;52.624;9.212;2022-07-24T04:31:57;4.40;;;3.50;;
7817;SDS011;3954;52.624;9.212;2022-07-24T04:34:23;4.90;;;3.70;;
7817;SDS011;3954;52.624;9.212;2022-07-24T04:36:49;3.60;;;3.30;;
7817;SDS011;3954;52.624;9.212;2022-07-24T04:39:15;5.63;;;3.80;;
7817;SDS011;3954;52.624;9.212;2022-07-24T04:41:41;3.87;;;3.57;;
7817;SDS011;3954;52.624;9.212;2022-07-24T04:44:07;5.80;;;3.63;;
7817;SDS011;3954;52.624;9.212;2022-07-24T04:46:35;3.77;;;3.00;;
7817;SDS011;3954;52.624;9.212;2022-07-24T04:49:01;3.73;;;3.40;;
7817;SDS011;3954;52.624;9.212;2022-07-24T04:51:27;6.40;;;3.53;;
7817;SDS011;3954;52.624;9.212;2022-07-24T04:53:53;4.80;;;3.27;;
7817;SDS011;3954;52.624;9.212;2022-07-24T04:56:19;3.20;;;2.90;;
7817;SDS011;3954;52.624;9.212;2022-07-24T04:58:45;3.40;;;3.10;;
7817;SDS011;3954;52.624;9.212;2022-07-24T05:01:11;3.43;;;3.10;;
7817;SDS011;3954;52.624;9.212;2022-07-24T05:03:39;3.37;;;3.13;;
7817;SDS011;3954;52.624;9.212;2022-07-24T05:06:05;2.90;;;2.70;;
7817;SDS011;3954;52.624;9.212;2022-07-24T05:08:31;3.83;;;3.13;;
7817;SDS011;3954;52.624;9.212;2022-07-24T05:10:57;3.53;;;2.90;;
7817;SDS011;3954;52.624;9.212;2022-07-24T05:13:23;3.00;;;2.67;;
7817;SDS011;3954;52.624;9.212;2022-07-24T05:15:49;3.00;;;2.80;;
7817;SDS011;3954;52.624;9.212;2022-07-24T05:18:15;2.50;;;2.30;;
7817;SDS011;3954;52.624;9.212;2022-07-24T05:20:42;4.03;;;3.10;;
7817;SDS011;3954;52.624;9.212;2022-07-24T05:23:08;3.13;;;2.83;;
7817;SDS011;3954;52.624;9.212;2022-07-24T05:25:34;3.17;;;2.90;;
7817;SDS011;3954;52.624;9.212;2022-07-24T05:28:00;2.93;;;2.70;;
7817;SDS011;3954;52.624;9.212;2022-07-24T05:30:26;3.13;;;2.60;;
7817;SDS011;3954;52.624;9.212;2022-07-24T05:32:52;4.37;;;2.60;;
7817;SDS011;3954;52.624;9.212;2022-07-24T05:35:18;3.23;;;2.80;;
7817;SDS011;3954;52.624;9.212;2022-07-24T05:37:46;2.80;;;2.50;;
7817;SDS011;3954;52.624;9.212;2022-07-24T05:40:12;3.10;;;2.80;;
7817;SDS011;3954;52.624;9.212;2022-07-24T05:42:38;2.97;;;2.67;;
7817;SDS011;3954;52.624;9.212;2022-07-24T05:45:04;3.27;;;2.80;;
7817;SDS011;3954;52.624;9.212;2022-07-24T05:47:34;2.90;;;2.30;;
7817;SDS011;3954;52.624;9.212;2022-07-24T05:50:00;5.10;;;2.60;;
7817;SDS011;3954;52.624;9.212;2022-07-24T05:52:26;3.17;;;2.60;;
7817;SDS011;3954;52.624;9.212;2022-07-24T05:54:53;3.23;;;2.70;;
7817;SDS011;3954;52.624;9.212;2022-07-24T05:57:19;3.63;;;2.33;;
7817;SDS011;3954;52.624;9.212;2022-07-24T05:59:45;2.33;;;2.10;;
7817;SDS011;3954;52.624;9.212;2022-07-24T06:02:11;2.30;;;2.10;;
7817;SDS011;3954;52.624;9.212;2022-07-24T06:04:37;3.03;;;2.20;;
7817;SDS011;3954;52.624;9.212;2022-07-24T06:07:07;2.60;;;2.10;;
7817;SDS011;3954;52.624;9.212;2022-07-24T06:09:33;2.90;;;2.00;;
7817;SDS011;3954;52.624;9.212;2022-07-24T06:12:00;2.20;;;2.00;;
7817;SDS011;3954;52.624;9.212;2022-07-24T06:14:26;2.33;;;1.90;;
7817;SDS011;3954;52.624;9.212;2022-07-24T06:16:52;2.30;;;2.10;;
7817;SDS011;3954;52.624;9.212;2022-07-24T06:19:18;2.67;;;2.20;;
7817;SDS011;3954;52.624;9.212;2022-07-24T06:21:44;1.80;;;1.70;;
7817;SDS011;3954;52.624;9.212;2022-07-24T06:24:10;2.17;;;1.97;;
7817;SDS011;3954;52.624;9.212;2022-07-24T06:26:36;3.17;;;1.90;;
7817;SDS011;3954;52.624;9.212;2022-07-24T06:29:03;3.00;;;1.90;;
7817;SDS011;3954;52.624;9.212;2022-07-24T06:31:29;1.97;;;1.67;;
7817;SDS011;3954;52.624;9.212;2022-07-24T06:33:55;1.93;;;1.73;;
7817;SDS011;3954;52.624;9.212;2022-07-24T06:36:21;2.23;;;1.73;;
7817;SDS011;3954;52.624;9.212;2022-07-24T06:38:47;2.10;;;1.90;;
7817;SDS011;3954;52.624;9.212;2022-07-24T06:41:13;2.00;;;1.80;;
7817;SDS011;3954;52.624;9.212;2022-07-24T06:43:40;1.93;;;1.50;;
7817;SDS011;3954;52.624;9.212;2022-07-24T06:46:07;3.33;;;1.50;;
7817;SDS011;3954;52.624;9.212;2022-07-24T06:48:33;3.03;;;1.60;;
7817;SDS011;3954;52.624;9.212;2022-07-24T06:50:59;2.77;;;1.77;;
7817;SDS011;3954;52.624;9.212;2022-07-24T06:53:25;2.90;;;1.70;;
7817;SDS011;3954;52.624;9.212;2022-07-24T06:55:51;3.80;;;1.80;;
7817;SDS011;3954;52.624;9.212;2022-07-24T06:58:18;2.73;;;1.90;;
7817;SDS011;3954;52.624;9.212;2022-07-24T07:00:44;1.83;;;1.70;;
7817;SDS011;3954;52.624;9.212;2022-07-24T07:03:11;3.03;;;1.70;;
7817;SDS011;3954;52.624;9.212;2022-07-24T07:05:37;2.23;;;1.73;;
7817;SDS011;3954;52.624;9.212;2022-07-24T07:08:04;3.30;;;1.50;;
7817;SDS011;3954;52.624;9.212;2022-07-24T07:10:30;2.70;;;1.80;;
7817;SDS011;3954;52.624;9.212;2022-07-24T07:12:56;1.50;;;1.40;;
7817;SDS011;3954;52.624;9.212;2022-07-24T07:15:22;3.67;;;1.60;;
7817;SDS011;3954;52.624;9.212;2022-07-24T07:17:48;2.57;;;1.73;;
7817;SDS011;3954;52.624;9.212;2022-07-24T07:20:15;1.87;;;1.60;;
7817;SDS011;3954;52.624;9.212;2022-07-24T07:22:41;3.40;;;1.80;;
7817;SDS011;3954;52.624;9.212;2022-07-24T07:25:08;4.07;;;1.70;;
7817;SDS011;3954;52.624;9.212;2022-07-24T07:27:34;2.87;;;1.80;;
7817;SDS011;3954;52.624;9.212;2022-07-24T07:30:00;1.47;;;1.37;;
7817;SDS011;3954;52.624;9.212;2022-07-24T07:32:26;1.50;;;1.40;;
7817;SDS011;3954;52.624;9.212;2022-07-24T07:34:52;2.10;;;1.53;;
7817;SDS011;3954;52.624;9.212;2022-07-24T07:37:20;2.53;;;1.80;;
7817;SDS011;3954;52.624;9.212;2022-07-24T07:39:46;1.83;;;1.67;;
7817;SDS011;3954;52.624;9.212;2022-07-24T07:42:12;2.40;;;1.77;;
7817;SDS011;3954;52.624;9.212;2022-07-24T07:44:38;2.33;;;1.80;;
7817;SDS011;3954;52.624;9.212;2022-07-24T07:47:04;2.00;;;1.70;;
7817;SDS011;3954;52.624;9.212;2022-07-24T07:49:30;2.80;;;1.70;;
7817;SDS011;3954;52.624;9.212;2022-07-24T07:51:56;2.00;;;1.70;;
7817;SDS011;3954;52.624;9.212;2022-07-24T07:54:23;3.30;;;1.80;;
7817;SDS011;3954;52.624;9.212;2022-07-24T07:56:49;1.70;;;1.60;;
7817;SDS011;3954;52.624;9.212;2022-07-24T07:59:15;2.37;;;1.80;;
7817;SDS011;3954;52.624;9.212;2022-07-24T08:01:41;1.63;;;1.40;;
7817;SDS011;3954;52.624;9.212;2022-07-24T08:04:07;2.53;;;1.83;;
7817;SDS011;3954;52.624;9.212;2022-07-24T08:06:33;2.27;;;1.90;;
7817;SDS011;3954;52.624;9.212;2022-07-24T08:08:59;1.80;;;1.70;;
7817;SDS011;3954;52.624;9.212;2022-07-24T08:11:26;2.63;;;1.97;;
7817;SDS011;3954;52.624;9.212;2022-07-24T08:13:53;2.87;;;2.03;;
7817;SDS011;3954;52.624;9.212;2022-07-24T08:16:19;2.63;;;1.77;;
7817;SDS011;3954;52.624;9.212;2022-07-24T08:18:45;2.13;;;1.90;;
7817;SDS011;3954;52.624;9.212;2022-07-24T08:21:11;3.40;;;2.80;;
7817;SDS011;3954;52.624;9.212;2022-07-24T08:23:37;2.40;;;2.20;;
7817;SDS011;3954;52.624;9.212;2022-07-24T08:26:03;3.10;;;2.33;;
7817;SDS011;3954;52.624;9.212;2022-07-24T08:28:30;2.60;;;2.20;;
7817;SDS011;3954;52.624;9.212;2022-07-24T08:30:56;2.07;;;1.80;;
7817;SDS011;3954;52.624;9.212;2022-07-24T08:33:22;3.63;;;2.50;;
7817;SDS011;3954;52.624;9.212;2022-07-24T08:35:48;2.70;;;2.40;;
7817;SDS011;3954;52.624;9.212;2022-07-24T08:38:14;4.47;;;2.40;;
7817;SDS011;3954;52.624;9.212;2022-07-24T08:40:40;2.50;;;2.30;;
7817;SDS011;3954;52.624;9.212;2022-07-24T08:43:07;2.93;;;2.27;;
7817;SDS011;3954;52.624;9.212;2022-07-24T08:45:36;3.83;;;2.47;;
7817;SDS011;3954;52.624;9.212;2022-07-24T08:48:02;2.60;;;2.23;;
7817;SDS011;3954;52.624;9.212;2022-07-24T08:50:29;3.23;;;2.40;;
7817;SDS011;3954;52.624;9.212;2022-07-24T08:52:55;4.30;;;2.63;;
7817;SDS011;3954;52.624;9.212;2022-07-24T08:55:22;3.57;;;2.53;;
7817;SDS011;3954;52.624;9.212;2022-07-24T08:57:48;3.33;;;2.80;;
7817;SDS011;3954;52.624;9.212;2022-07-24T09:00:14;2.90;;;2.53;;
7817;SDS011;3954;52.624;9.212;2022-07-24T09:02:41;3.87;;;3.00;;
7817;SDS011;3954;52.624;9.212;2022-07-24T09:05:08;3.83;;;3.00;;
7817;SDS011;3954;52.624;9.212;2022-07-24T09:07:34;4.83;;;2.80;;
7817;SDS011;3954;52.624;9.212;2022-07-24T09:10:00;3.47;;;2.73;;
7817;SDS011;3954;52.624;9.212;2022-07-24T09:12:30;3.30;;;3.00;;
7817;SDS011;3954;52.624;9.212;2022-07-24T09:14:56;4.00;;;3.00;;
7817;SDS011;3954;52.624;9.212;2022-07-24T09:17:22;3.63;;;2.93;;
7817;SDS011;3954;52.624;9.212;2022-07-24T09:19:51;3.80;;;2.90;;
7817;SDS011;3954;52.624;9.212;2022-07-24T09:22:24;6.37;;;3.40;;
7817;SDS011;3954;52.624;9.212;2022-07-24T09:25:02;3.07;;;2.77;;
7817;SDS011;3954;52.624;9.212;2022-07-24T09:27:28;3.70;;;3.30;;
7817;SDS011;3954;52.624;9.212;2022-07-24T09:29:54;4.83;;;3.53;;
7817;SDS011;3954;52.624;9.212;2022-07-24T09:32:21;4.75;;;3.40;;
7817;SDS011;3954;52.624;9.212;2022-07-24T09:34:50;5.13;;;3.30;;
7817;SDS011;3954;52.624;9.212;2022-07-24T09:37:17;4.10;;;3.07;;
7817;SDS011;3954;52.624;9.212;2022-07-24T09:39:44;3.65;;;3.30;;
7817;SDS011;3954;52.624;9.212;2022-07-24T09:42:10;3.83;;;3.43;;
7817;SDS011;3954;52.624;9.212;2022-07-24T09:44:37;4.78;;;3.20;;
7817;SDS011;3954;52.624;9.212;2022-07-24T09:47:04;5.47;;;3.50;;
7817;SDS011;3954;52.624;9.212;2022-07-24T09:49:31;3.47;;;2.90;;
7817;SDS011;3954;52.624;9.212;2022-07-24T09:52:10;5.25;;;3.28;;
7817;SDS011;3954;52.624;9.212;2022-07-24T09:54:39;3.58;;;3.13;;
7817;SDS011;3954;52.624;9.212;2022-07-24T09:57:14;3.83;;;3.40;;
7817;SDS011;3954;52.624;9.212;2022-07-24T09:59:42;4.53;;;3.50;;
7817;SDS011;3954;52.624;9.212;2022-07-24T10:02:08;3.60;;;3.28;;
7817;SDS011;3954;52.624;9.212;2022-07-24T10:04:38;4.93;;;3.33;;
7817;SDS011;3954;52.624;9.212;2022-07-24T10:07:06;3.65;;;3.30;;
7817;SDS011;3954;52.624;9.212;2022-07-24T10:09:35;3.97;;;3.40;;
7817;SDS011;3954;52.624;9.212;2022-07-24T10:12:03;4.38;;;3.60;;
7817;SDS011;3954;52.624;9.212;2022-07-24T10:14:29;4.47;;;3.45;;
7817;SDS011;3954;52.624;9.212;2022-07-24T10:16:57;4.63;;;3.20;;
7817;SDS011;3954;52.624;9.212;2022-07-24T10:19:28;3.83;;;3.40;;
7817;SDS011;3954;52.624;9.212;2022-07-24T10:21:57;4.15;;;3.80;;
7817;SDS011;3954;52.624;9.212;2022-07-24T10:24:40;4.05;;;3.40;;
7817;SDS011;3954;52.624;9.212;2022-07-24T10:27:17;3.70;;;3.30;;
7817;SDS011;3954;52.624;9.212;2022-07-24T10:29:45;4.60;;;3.67;;
7817;SDS011;3954;52.624;9.212;2022-07-24T10:32:12;4.57;;;3.10;;
7817;SDS011;3954;52.624;9.212;2022-07-24T10:34:41;4.45;;;3.55;;
7817;SDS011;3954;52.624;9.212;2022-07-24T10:37:09;6.32;;;3.63;;
7817;SDS011;3954;52.624;9.212;2022-07-24T10:39:39;4.03;;;3.63;;
7817;SDS011;3954;52.624;9.212;2022-07-24T10:42:09;3.97;;;3.53;;
7817;SDS011;3954;52.624;9.212;2022-07-24T10:44:36;5.57;;;3.40;;
7817;SDS011;3954;52.624;9.212;2022-07-24T10:47:03;3.85;;;3.13;;
7817;SDS011;3954;52.624;9.212;2022-07-24T10:49:40;3.67;;;3.20;;
7817;SDS011;3954;52.624;9.212;2022-07-24T10:52:08;4.40;;;3.33;;
7817;SDS011;3954;52.624;9.212;2022-07-24T10:54:34;4.95;;;3.55;;
7817;SDS011;3954;52.624;9.212;2022-07-24T10:57:00;5.40;;;3.88;;
7817;SDS011;3954;52.624;9.212;2022-07-24T10:59:32;4.93;;;3.38;;
7817;SDS011;3954;52.624;9.212;2022-07-24T11:02:23;3.97;;;3.57;;
7817;SDS011;3954;52.624;9.212;2022-07-24T11:04:50;4.43;;;3.70;;
7817;SDS011;3954;52.624;9.212;2022-07-24T11:07:35;3.60;;;3.30;;
7817;SDS011;3954;52.624;9.212;2022-07-24T11:10:02;5.10;;;3.70;;
7817;SDS011;3954;52.624;9.212;2022-07-24T11:12:33;4.23;;;3.23;;
7817;SDS011;3954;52.624;9.212;2022-07-24T11:14:59;4.40;;;3.80;;
7817;SDS011;3954;52.624;9.212;2022-07-24T11:17:47;5.10;;;3.60;;
7817;SDS011;3954;52.624;9.212;2022-07-24T11:20:13;4.00;;;3.30;;
7817;SDS011;3954;52.624;9.212;2022-07-24T11:22:41;3.93;;;3.63;;
7817;SDS011;3954;52.624;9.212;2022-07-24T11:25:08;4.93;;;3.63;;
7817;SDS011;3954;52.624;9.212;2022-07-24T11:27:41;3.80;;;2.90;;
7817;SDS011;3954;52.624;9.212;2022-07-24T11:30:09;3.50;;;3.13;;
7817;SDS011;3954;52.624;9.212;2022-07-24T11:32:35;4.40;;;3.23;;
7817;SDS011;3954;52.624;9.212;2022-07-24T11:35:03;3.70;;;3.30;;
7817;SDS011;3954;52.624;9.212;2022-07-24T11:37:31;4.73;;;3.40;;
7817;SDS011;3954;52.624;9.212;2022-07-24T11:39:58;5.60;;;3.70;;
7817;SDS011;3954;52.624;9.212;2022-07-24T11:42:24;5.13;;;3.33;;
7817;SDS011;3954;52.624;9.212;2022-07-24T11:44:50;5.70;;;3.20;;
7817;SDS011;3954;52.624;9.212;2022-07-24T11:47:17;4.83;;;3.03;;
7817;SDS011;3954;52.624;9.212;2022-07-24T11:49:43;3.70;;;3.40;;
7817;SDS011;3954;52.624;9.212;2022-07-24T11:52:15;4.33;;;3.50;;
7817;SDS011;3954;52.624;9.212;2022-07-24T11:54:42;3.93;;;3.27;;
7817;SDS011;3954;52.624;9.212;2022-07-24T11:57:15;3.90;;;3.30;;
7817;SDS011;3954;52.624;9.212;2022-07-24T11:59:41;3.83;;;3.30;;
7817;SDS011;3954;52.624;9.212;2022-07-24T12:02:08;6.67;;;3.10;;
7817;SDS011;3954;52.624;9.212;2022-07-24T12:04:35;3.83;;;3.30;;
7817;SDS011;3954;52.624;9.212;2022-07-24T12:07:01;5.03;;;3.50;;
7817;SDS011;3954;52.624;9.212;2022-07-24T12:09:32;3.40;;;3.00;;
7817;SDS011;3954;52.624;9.212;2022-07-24T12:11:58;4.37;;;3.07;;
7817;SDS011;3954;52.624;9.212;2022-07-24T12:14:24;3.80;;;3.37;;
7817;SDS011;3954;52.624;9.212;2022-07-24T12:16:51;7.60;;;3.67;;
7817;SDS011;3954;52.624;9.212;2022-07-24T12:19:18;3.50;;;3.10;;
7817;SDS011;3954;52.624;9.212;2022-07-24T12:21:44;4.07;;;3.30;;
7817;SDS011;3954;52.624;9.212;2022-07-24T12:24:11;3.87;;;3.00;;
7817;SDS011;3954;52.624;9.212;2022-07-24T12:26:52;4.50;;;3.47;;
7817;SDS011;3954;52.624;9.212;2022-07-24T12:29:18;4.87;;;3.60;;
7817;SDS011;3954;52.624;9.212;2022-07-24T12:31:45;4.40;;;3.33;;
7817;SDS011;3954;52.624;9.212;2022-07-24T12:34:11;3.67;;;3.13;;
7817;SDS011;3954;52.624;9.212;2022-07-24T12:36:37;4.40;;;3.27;;
7817;SDS011;3954;52.624;9.212;2022-07-24T12:39:04;4.60;;;3.30;;
7817;SDS011;3954;52.624;9.212;2022-07-24T12:41:31;3.47;;;3.10;;
7817;SDS011;3954;52.624;9.212;2022-07-24T12:43:59;4.50;;;3.27;;
7817;SDS011;3954;52.624;9.212;2022-07-24T12:46:29;3.67;;;3.30;;
7817;SDS011;3954;52.624;9.212;2022-07-24T12:48:56;4.20;;;3.17;;
7817;SDS011;3954;52.624;9.212;2022-07-24T12:51:22;3.80;;;3.40;;
7817;SDS011;3954;52.624;9.212;2022-07-24T12:53:52;3.67;;;3.37;;
7817;SDS011;3954;52.624;9.212;2022-07-24T12:56:18;4.37;;;3.67;;
7817;SDS011;3954;52.624;9.212;2022-07-24T12:58:49;4.77;;;3.43;;
7817;SDS011;3954;52.624;9.212;2022-07-24T13:01:16;3.70;;;3.30;;
7817;SDS011;3954;52.624;9.212;2022-07-24T13:03:42;4.13;;;3.53;;
7817;SDS011;3954;52.624;9.212;2022-07-24T13:06:15;3.60;;;3.30;;
7817;SDS011;3954;52.624;9.212;2022-07-24T13:08:41;3.77;;;3.37;;
7817;SDS011;3954;52.624;9.212;2022-07-24T13:11:07;8.13;;;3.20;;
7817;SDS011;3954;52.624;9.212;2022-07-24T13:13:33;4.60;;;3.63;;
7817;SDS011;3954;52.624;9.212;2022-07-24T13:15:58;5.00;;;3.40;;
7817;SDS011;3954;52.624;9.212;2022-07-24T13:18:26;3.30;;;3.00;;
7817;SDS011;3954;52.624;9.212;2022-07-24T13:20:52;4.23;;;3.57;;
7817;SDS011;3954;52.624;9.212;2022-07-24T13:23:18;3.60;;;3.30;;
7817;SDS011;3954;52.624;9.212;2022-07-24T13:25:44;3.50;;;3.20;;
7817;SDS011;3954;52.624;9.212;2022-07-24T13:28:12;3.37;;;3.00;;
7817;SDS011;3954;52.624;9.212;2022-07-24T13:30:38;4.43;;;3.40;;
7817;SDS011;3954;52.624;9.212;2022-07-24T13:33:04;4.00;;;3.27;;
7817;SDS011;3954;52.624;9.212;2022-07-24T13:35:31;5.23;;;3.50;;
7817;SDS011;3954;52.624;9.212;2022-07-24T13:37:58;4.32;;;3.22;;
7817;SDS011;3954;52.624;9.212;2022-07-24T13:40:24;4.22;;;3.20;;
7817;SDS011;3954;52.624;9.212;2022-07-24T13:42:50;3.77;;;3.27;;
7817;SDS011;3954;52.624;9.212;2022-07-24T13:45:16;4.05;;;2.92;;
7817;SDS011;3954;52.624;9.212;2022-07-24T13:47:42;4.40;;;3.47;;
7817;SDS011;3954;52.624;9.212;2022-07-24T13:50:08;3.60;;;3.30;;
7817;SDS011;3954;52.624;9.212;2022-07-24T13:52:36;3.38;;;3.10;;
7817;SDS011;3954;52.624;9.212;2022-07-24T13:55:02;8.00;;;3.42;;
7817;SDS011;3954;52.624;9.212;2022-07-24T13:57:28;3.67;;;3.38;;
7817;SDS011;3954;52.624;9.212;2022-07-24T13:59:54;3.58;;;3.20;;
7817;SDS011;3954;52.624;9.212;2022-07-24T14:02:20;5.13;;;3.15;;
7817;SDS011;3954;52.624;9.212;2022-07-24T14:04:46;4.57;;;3.40;;
7817;SDS011;3954;52.624;9.212;2022-07-24T14:07:12;3.75;;;3.33;;
7817;SDS011;3954;52.624;9.212;2022-07-24T14:09:39;3.55;;;3.25;;
7817;SDS011;3954;52.624;9.212;2022-07-24T14:12:06;4.18;;;3.25;;
7817;SDS011;3954;52.624;9.212;2022-07-24T14:14:32;3.72;;;3.22;;
7817;SDS011;3954;52.624;9.212;2022-07-24T14:16:58;3.40;;;3.10;;
7817;SDS011;3954;52.624;9.212;2022-07-24T14:19:24;4.25;;;3.30;;
7817;SDS011;3954;52.624;9.212;2022-07-24T14:21:50;3.55;;;3.10;;
7817;SDS011;3954;52.624;9.212;2022-07-24T14:24:17;3.85;;;3.03;;
7817;SDS011;3954;52.624;9.212;2022-07-24T14:26:45;4.07;;;3.23;;
7817;SDS011;3954;52.624;9.212;2022-07-24T14:29:11;6.15;;;3.10;;
7817;SDS011;3954;52.624;9.212;2022-07-24T14:31:37;3.38;;;3.08;;
7817;SDS011;3954;52.624;9.212;2022-07-24T14:34:03;4.10;;;3.07;;
7817;SDS011;3954;52.624;9.212;2022-07-24T14:36:30;3.35;;;2.95;;
7817;SDS011;3954;52.624;9.212;2022-07-24T14:38:56;4.30;;;3.10;;
7817;SDS011;3954;52.624;9.212;2022-07-24T14:41:22;4.35;;;3.10;;
7817;SDS011;3954;52.624;9.212;2022-07-24T14:43:49;5.38;;;4.00;;
7817;SDS011;3954;52.624;9.212;2022-07-24T14:46:16;5.38;;;3.28;;
7817;SDS011;3954;52.624;9.212;2022-07-24T14:48:42;3.60;;;3.00;;
7817;SDS011;3954;52.624;9.212;2022-07-24T14:51:08;3.20;;;2.90;;
7817;SDS011;3954;52.624;9.212;2022-07-24T14:53:34;4.32;;;3.20;;
7817;SDS011;3954;52.624;9.212;2022-07-24T14:55:59;5.82;;;3.20;;
7817;SDS011;3954;52.624;9.212;2022-07-24T14:58:25;3.78;;;3.30;;
7817;SDS011;3954;52.624;9.212;2022-07-24T15:00:53;3.40;;;3.03;;
7817;SDS011;3954;52.624;9.212;2022-07-24T15:03:20;3.83;;;3.05;;
7817;SDS011;3954;52.624;9.212;2022-07-24T15:05:46;4.00;;;2.90;;
7817;SDS011;3954;52.624;9.212;2022-07-24T15:08:12;3.30;;;3.00;;
7817;SDS011;3954;52.624;9.212;2022-07-24T15:10:38;3.25;;;2.95;;
7817;SDS011;3954;52.624;9.212;2022-07-24T15:13:04;4.53;;;3.20;;